FVHA

Details ICAO FVHA (HRE)
Name HARARE INTL
Region Zimbabwe
Timezone Africa/Harare (UTC+2.0)
Plans Departing 108
Arriving 110
Stats Elevation 4,887 ft / 1,490 m (AMSL)
Location -17.931806° 31.092848°
Runways 1
Magnetic Variation 8.523° W
Sunrise 2017-12-15 03:16:17 UTC / 2017-12-15 05:16:17 Local
Sunset 2017-12-15 16:27:59 UTC / 2017-12-15 18:27:59 Local
Advertisement - Login to hide

Runways

ID Width Length Bearing (true) Bearing (mag) Surface Threshold Offset Overrun Length
05 151 ft / 46 m 15,517 ft / 4,730 m 44.85° 53.37° Asphalt 0 ft / 0 m 320 ft / 98 m
23 151 ft / 46 m 15,517 ft / 4,730 m 224.84° 233.36° Asphalt 3,630 ft / 1,106 m 295 ft / 90 m

Approach Navaids

Runway Type Ident Frequency Range Bearing (true) Bearing (mag) Slope Elevation
05 Localiser ISB 110.30 MHz 18 nm / 33 km 44.81° 53.34° - 4,887 ft / 1,490 m (AMSL)
05 Glidescope ISB 110.30 MHz 10 nm / 19 km 44.84° 53.37° 3.00° 4,887 ft / 1,490 m (AMSL)

Map

Weather


0- 5 10 15 20 25 30 35+ Temperature / ° C

Clouds and Precipitation
Forecast for 2017-12-15 12:00 UTC. Updated 2 hours ago

Ground ~20,000 ft ~40,000 ft Winds

METAR

FVHA 151200Z 15011KT 110V180 9999 FEW020CB SCT025 BKN080 23/17 Q1022 NOSIG

TAF

Not found

Frequencies

Ground 127.30 MHz GND
Approach 119.10 MHz APP
Tower 118.10 MHz TWR
Warning: Do not use this data for real-world aviation or navigation. No guarantee of current accuracy is given.